sensor_id;sensor_type;location;lat;lon;timestamp;P1;durP1;ratioP1;P2;durP2;ratioP2
83018;SDS011;72834;40.104;18.336;2024-03-07T00:00:27;10.15;;;3.70;;
83018;SDS011;72834;40.104;18.336;2024-03-07T00:02:53;10.15;;;3.22;;
83018;SDS011;72834;40.104;18.336;2024-03-07T00:05:22;8.85;;;3.13;;
83018;SDS011;72834;40.104;18.336;2024-03-07T00:07:51;11.02;;;2.65;;
83018;SDS011;72834;40.104;18.336;2024-03-07T00:10:17;5.30;;;2.15;;
83018;SDS011;72834;40.104;18.336;2024-03-07T00:12:43;11.32;;;2.35;;
83018;SDS011;72834;40.104;18.336;2024-03-07T00:15:11;9.88;;;2.00;;
83018;SDS011;72834;40.104;18.336;2024-03-07T00:17:38;9.43;;;2.72;;
83018;SDS011;72834;40.104;18.336;2024-03-07T00:20:05;6.25;;;2.00;;
83018;SDS011;72834;40.104;18.336;2024-03-07T00:22:35;7.07;;;2.50;;
83018;SDS011;72834;40.104;18.336;2024-03-07T00:25:02;6.20;;;1.90;;
83018;SDS011;72834;40.104;18.336;2024-03-07T00:27:32;10.57;;;1.88;;
83018;SDS011;72834;40.104;18.336;2024-03-07T00:29:59;6.43;;;1.65;;
83018;SDS011;72834;40.104;18.336;2024-03-07T00:32:25;4.93;;;1.60;;
83018;SDS011;72834;40.104;18.336;2024-03-07T00:34:55;8.98;;;1.40;;
83018;SDS011;72834;40.104;18.336;2024-03-07T00:37:24;7.80;;;1.73;;
83018;SDS011;72834;40.104;18.336;2024-03-07T00:39:50;6.70;;;1.92;;
83018;SDS011;72834;40.104;18.336;2024-03-07T00:42:16;10.32;;;2.22;;
83018;SDS011;72834;40.104;18.336;2024-03-07T00:44:43;12.05;;;3.03;;
83018;SDS011;72834;40.104;18.336;2024-03-07T00:47:09;12.52;;;2.97;;
83018;SDS011;72834;40.104;18.336;2024-03-07T00:49:36;12.05;;;3.15;;
83018;SDS011;72834;40.104;18.336;2024-03-07T00:52:03;13.95;;;5.28;;
83018;SDS011;72834;40.104;18.336;2024-03-07T00:54:29;12.38;;;4.15;;
83018;SDS011;72834;40.104;18.336;2024-03-07T00:56:56;11.95;;;3.35;;
83018;SDS011;72834;40.104;18.336;2024-03-07T00:59:22;7.05;;;2.65;;
83018;SDS011;72834;40.104;18.336;2024-03-07T01:01:48;7.10;;;2.08;;
83018;SDS011;72834;40.104;18.336;2024-03-07T01:04:14;8.57;;;2.78;;
83018;SDS011;72834;40.104;18.336;2024-03-07T01:06:40;7.70;;;1.58;;
83018;SDS011;72834;40.104;18.336;2024-03-07T01:09:07;6.55;;;1.90;;
83018;SDS011;72834;40.104;18.336;2024-03-07T01:11:40;7.15;;;1.90;;
83018;SDS011;72834;40.104;18.336;2024-03-07T01:14:08;5.85;;;1.73;;
83018;SDS011;72834;40.104;18.336;2024-03-07T01:16:34;4.13;;;1.27;;
83018;SDS011;72834;40.104;18.336;2024-03-07T01:19:01;9.40;;;2.20;;
83018;SDS011;72834;40.104;18.336;2024-03-07T01:21:27;6.75;;;1.63;;
83018;SDS011;72834;40.104;18.336;2024-03-07T01:23:53;6.43;;;1.60;;
83018;SDS011;72834;40.104;18.336;2024-03-07T01:26:20;11.25;;;1.95;;
83018;SDS011;72834;40.104;18.336;2024-03-07T01:28:47;11.85;;;1.75;;
83018;SDS011;72834;40.104;18.336;2024-03-07T01:31:13;5.28;;;1.88;;
83018;SDS011;72834;40.104;18.336;2024-03-07T01:33:39;8.30;;;1.65;;
83018;SDS011;72834;40.104;18.336;2024-03-07T01:36:06;6.70;;;1.45;;
83018;SDS011;72834;40.104;18.336;2024-03-07T01:38:32;11.65;;;1.58;;
83018;SDS011;72834;40.104;18.336;2024-03-07T01:40:58;9.00;;;1.83;;
83018;SDS011;72834;40.104;18.336;2024-03-07T01:43:24;7.07;;;1.58;;
83018;SDS011;72834;40.104;18.336;2024-03-07T01:45:50;5.07;;;1.80;;
83018;SDS011;72834;40.104;18.336;2024-03-07T01:48:25;4.80;;;1.80;;
83018;SDS011;72834;40.104;18.336;2024-03-07T01:50:58;11.68;;;1.70;;
83018;SDS011;72834;40.104;18.336;2024-03-07T01:53:27;6.95;;;2.20;;
83018;SDS011;72834;40.104;18.336;2024-03-07T01:55:56;7.15;;;1.88;;
83018;SDS011;72834;40.104;18.336;2024-03-07T01:58:23;3.97;;;1.27;;
83018;SDS011;72834;40.104;18.336;2024-03-07T02:00:50;8.93;;;1.80;;
83018;SDS011;72834;40.104;18.336;2024-03-07T02:03:16;7.05;;;1.60;;
83018;SDS011;72834;40.104;18.336;2024-03-07T02:05:43;8.85;;;1.85;;
83018;SDS011;72834;40.104;18.336;2024-03-07T02:08:10;5.68;;;1.50;;
83018;SDS011;72834;40.104;18.336;2024-03-07T02:10:36;9.20;;;2.08;;
83018;SDS011;72834;40.104;18.336;2024-03-07T02:13:03;5.03;;;1.40;;
83018;SDS011;72834;40.104;18.336;2024-03-07T02:15:29;7.15;;;2.42;;
83018;SDS011;72834;40.104;18.336;2024-03-07T02:17:56;9.45;;;2.10;;
83018;SDS011;72834;40.104;18.336;2024-03-07T02:20:23;10.77;;;2.05;;
83018;SDS011;72834;40.104;18.336;2024-03-07T02:22:49;8.50;;;1.90;;
83018;SDS011;72834;40.104;18.336;2024-03-07T02:25:16;4.88;;;1.63;;
83018;SDS011;72834;40.104;18.336;2024-03-07T02:27:43;8.25;;;1.80;;
83018;SDS011;72834;40.104;18.336;2024-03-07T02:30:11;3.63;;;0.98;;
83018;SDS011;72834;40.104;18.336;2024-03-07T02:32:38;3.30;;;1.08;;
83018;SDS011;72834;40.104;18.336;2024-03-07T02:35:04;4.97;;;1.08;;
83018;SDS011;72834;40.104;18.336;2024-03-07T02:37:31;1.95;;;0.75;;
83018;SDS011;72834;40.104;18.336;2024-03-07T02:39:57;4.30;;;0.77;;
83018;SDS011;72834;40.104;18.336;2024-03-07T02:42:23;1.30;;;0.50;;
83018;SDS011;72834;40.104;18.336;2024-03-07T02:44:50;2.53;;;0.80;;
83018;SDS011;72834;40.104;18.336;2024-03-07T02:47:18;1.98;;;0.45;;
83018;SDS011;72834;40.104;18.336;2024-03-07T02:49:44;3.63;;;0.65;;
83018;SDS011;72834;40.104;18.336;2024-03-07T02:52:10;3.85;;;0.77;;
83018;SDS011;72834;40.104;18.336;2024-03-07T02:54:37;2.58;;;0.63;;
83018;SDS011;72834;40.104;18.336;2024-03-07T02:57:03;2.22;;;0.98;;
83018;SDS011;72834;40.104;18.336;2024-03-07T02:59:29;4.82;;;0.70;;
83018;SDS011;72834;40.104;18.336;2024-03-07T03:01:55;1.52;;;0.43;;
83018;SDS011;72834;40.104;18.336;2024-03-07T03:04:22;6.55;;;0.47;;
83018;SDS011;72834;40.104;18.336;2024-03-07T03:06:48;2.92;;;0.70;;
83018;SDS011;72834;40.104;18.336;2024-03-07T03:09:14;2.53;;;0.85;;
83018;SDS011;72834;40.104;18.336;2024-03-07T03:11:44;1.80;;;0.60;;
83018;SDS011;72834;40.104;18.336;2024-03-07T03:14:11;3.15;;;0.60;;
83018;SDS011;72834;40.104;18.336;2024-03-07T03:16:42;5.50;;;0.60;;
83018;SDS011;72834;40.104;18.336;2024-03-07T03:19:09;4.43;;;0.63;;
83018;SDS011;72834;40.104;18.336;2024-03-07T03:21:36;0.60;;;0.60;;
83018;SDS011;72834;40.104;18.336;2024-03-07T03:24:03;5.97;;;0.77;;
83018;SDS011;72834;40.104;18.336;2024-03-07T03:26:30;1.55;;;0.40;;
83018;SDS011;72834;40.104;18.336;2024-03-07T03:28:59;5.72;;;0.73;;
83018;SDS011;72834;40.104;18.336;2024-03-07T03:31:25;1.42;;;0.50;;
83018;SDS011;72834;40.104;18.336;2024-03-07T03:33:51;3.65;;;0.90;;
83018;SDS011;72834;40.104;18.336;2024-03-07T03:36:18;3.63;;;0.52;;
83018;SDS011;72834;40.104;18.336;2024-03-07T03:38:44;1.55;;;0.80;;
83018;SDS011;72834;40.104;18.336;2024-03-07T03:41:14;1.83;;;0.70;;
83018;SDS011;72834;40.104;18.336;2024-03-07T03:43:42;2.00;;;0.80;;
83018;SDS011;72834;40.104;18.336;2024-03-07T03:46:09;2.13;;;0.50;;
83018;SDS011;72834;40.104;18.336;2024-03-07T03:48:37;2.92;;;0.60;;
83018;SDS011;72834;40.104;18.336;2024-03-07T03:51:06;2.05;;;0.80;;
83018;SDS011;72834;40.104;18.336;2024-03-07T03:53:36;1.67;;;0.70;;
83018;SDS011;72834;40.104;18.336;2024-03-07T03:56:02;4.80;;;1.23;;
83018;SDS011;72834;40.104;18.336;2024-03-07T03:58:32;7.65;;;0.68;;
83018;SDS011;72834;40.104;18.336;2024-03-07T04:00:59;1.40;;;0.60;;
83018;SDS011;72834;40.104;18.336;2024-03-07T04:03:25;1.40;;;0.68;;
83018;SDS011;72834;40.104;18.336;2024-03-07T04:05:52;3.05;;;0.60;;
83018;SDS011;72834;40.104;18.336;2024-03-07T04:08:18;0.82;;;0.43;;
83018;SDS011;72834;40.104;18.336;2024-03-07T04:10:45;3.22;;;0.63;;
83018;SDS011;72834;40.104;18.336;2024-03-07T04:13:11;2.92;;;0.82;;
83018;SDS011;72834;40.104;18.336;2024-03-07T04:15:39;3.00;;;0.65;;
83018;SDS011;72834;40.104;18.336;2024-03-07T04:18:05;2.35;;;0.80;;
83018;SDS011;72834;40.104;18.336;2024-03-07T04:20:32;2.10;;;0.95;;
83018;SDS011;72834;40.104;18.336;2024-03-07T04:22:59;4.43;;;1.38;;
83018;SDS011;72834;40.104;18.336;2024-03-07T04:25:25;5.93;;;1.73;;
83018;SDS011;72834;40.104;18.336;2024-03-07T04:27:51;2.38;;;0.95;;
83018;SDS011;72834;40.104;18.336;2024-03-07T04:30:17;3.95;;;0.65;;
83018;SDS011;72834;40.104;18.336;2024-03-07T04:32:43;3.30;;;0.80;;
83018;SDS011;72834;40.104;18.336;2024-03-07T04:35:09;1.75;;;0.90;;
83018;SDS011;72834;40.104;18.336;2024-03-07T04:37:39;4.70;;;1.20;;
83018;SDS011;72834;40.104;18.336;2024-03-07T04:40:07;2.53;;;0.95;;
83018;SDS011;72834;40.104;18.336;2024-03-07T04:42:48;2.50;;;1.08;;
83018;SDS011;72834;40.104;18.336;2024-03-07T04:45:14;4.53;;;1.05;;
83018;SDS011;72834;40.104;18.336;2024-03-07T04:47:42;5.43;;;1.48;;
83018;SDS011;72834;40.104;18.336;2024-03-07T04:50:12;6.13;;;1.63;;
83018;SDS011;72834;40.104;18.336;2024-03-07T04:52:42;4.70;;;1.33;;
83018;SDS011;72834;40.104;18.336;2024-03-07T04:55:09;5.43;;;1.35;;
83018;SDS011;72834;40.104;18.336;2024-03-07T04:57:36;4.97;;;1.42;;
83018;SDS011;72834;40.104;18.336;2024-03-07T05:00:08;3.72;;;0.88;;
83018;SDS011;72834;40.104;18.336;2024-03-07T05:02:40;3.13;;;0.90;;
83018;SDS011;72834;40.104;18.336;2024-03-07T05:05:07;5.10;;;1.30;;
83018;SDS011;72834;40.104;18.336;2024-03-07T05:07:33;3.33;;;1.20;;
83018;SDS011;72834;40.104;18.336;2024-03-07T05:10:04;5.60;;;1.67;;
83018;SDS011;72834;40.104;18.336;2024-03-07T05:12:32;6.00;;;1.47;;
83018;SDS011;72834;40.104;18.336;2024-03-07T05:14:58;6.63;;;1.77;;
83018;SDS011;72834;40.104;18.336;2024-03-07T05:17:25;6.43;;;1.63;;
83018;SDS011;72834;40.104;18.336;2024-03-07T05:19:51;4.68;;;1.85;;
83018;SDS011;72834;40.104;18.336;2024-03-07T05:22:17;3.10;;;1.35;;
83018;SDS011;72834;40.104;18.336;2024-03-07T05:24:45;2.13;;;0.88;;
83018;SDS011;72834;40.104;18.336;2024-03-07T05:27:12;3.75;;;0.98;;
83018;SDS011;72834;40.104;18.336;2024-03-07T05:29:38;3.88;;;1.02;;
83018;SDS011;72834;40.104;18.336;2024-03-07T05:32:24;3.50;;;1.52;;
83018;SDS011;72834;40.104;18.336;2024-03-07T05:34:51;4.65;;;1.38;;
83018;SDS011;72834;40.104;18.336;2024-03-07T05:37:21;3.72;;;1.70;;
83018;SDS011;72834;40.104;18.336;2024-03-07T05:39:50;6.50;;;1.55;;
83018;SDS011;72834;40.104;18.336;2024-03-07T05:42:17;4.13;;;1.70;;
83018;SDS011;72834;40.104;18.336;2024-03-07T05:44:44;6.50;;;2.65;;
83018;SDS011;72834;40.104;18.336;2024-03-07T05:47:11;81.65;;;42.15;;
83018;SDS011;72834;40.104;18.336;2024-03-07T05:49:41;23.08;;;13.25;;
83018;SDS011;72834;40.104;18.336;2024-03-07T05:52:07;14.05;;;7.00;;
83018;SDS011;72834;40.104;18.336;2024-03-07T05:54:34;5.60;;;2.92;;
83018;SDS011;72834;40.104;18.336;2024-03-07T05:57:01;9.18;;;4.35;;
83018;SDS011;72834;40.104;18.336;2024-03-07T05:59:28;17.17;;;7.75;;
83018;SDS011;72834;40.104;18.336;2024-03-07T06:01:54;8.57;;;3.10;;
83018;SDS011;72834;40.104;18.336;2024-03-07T06:04:21;5.53;;;2.25;;
83018;SDS011;72834;40.104;18.336;2024-03-07T06:06:47;5.35;;;2.05;;
83018;SDS011;72834;40.104;18.336;2024-03-07T06:09:14;7.18;;;2.03;;
83018;SDS011;72834;40.104;18.336;2024-03-07T06:11:50;5.50;;;2.30;;
83018;SDS011;72834;40.104;18.336;2024-03-07T06:14:17;8.63;;;2.03;;
83018;SDS011;72834;40.104;18.336;2024-03-07T06:16:43;6.68;;;1.80;;
83018;SDS011;72834;40.104;18.336;2024-03-07T06:19:09;6.03;;;2.10;;
83018;SDS011;72834;40.104;18.336;2024-03-07T06:21:37;5.90;;;2.00;;
83018;SDS011;72834;40.104;18.336;2024-03-07T06:24:06;6.88;;;2.30;;
83018;SDS011;72834;40.104;18.336;2024-03-07T06:26:35;4.45;;;1.52;;
83018;SDS011;72834;40.104;18.336;2024-03-07T06:29:04;5.85;;;1.75;;
83018;SDS011;72834;40.104;18.336;2024-03-07T06:31:33;13.55;;;2.08;;
83018;SDS011;72834;40.104;18.336;2024-03-07T06:34:01;4.05;;;1.60;;
83018;SDS011;72834;40.104;18.336;2024-03-07T06:36:28;5.65;;;1.70;;
83018;SDS011;72834;40.104;18.336;2024-03-07T06:38:54;3.00;;;1.25;;
83018;SDS011;72834;40.104;18.336;2024-03-07T06:41:20;6.68;;;2.65;;
83018;SDS011;72834;40.104;18.336;2024-03-07T06:43:47;8.50;;;2.80;;
83018;SDS011;72834;40.104;18.336;2024-03-07T06:46:15;10.25;;;5.68;;
83018;SDS011;72834;40.104;18.336;2024-03-07T06:48:42;13.23;;;5.32;;
83018;SDS011;72834;40.104;18.336;2024-03-07T06:51:09;16.58;;;7.40;;
83018;SDS011;72834;40.104;18.336;2024-03-07T06:53:36;12.50;;;6.45;;
83018;SDS011;72834;40.104;18.336;2024-03-07T06:56:02;18.02;;;11.75;;
83018;SDS011;72834;40.104;18.336;2024-03-07T06:58:29;8.98;;;5.03;;
83018;SDS011;72834;40.104;18.336;2024-03-07T07:00:55;19.92;;;8.57;;
83018;SDS011;72834;40.104;18.336;2024-03-07T07:03:23;39.65;;;18.23;;
83018;SDS011;72834;40.104;18.336;2024-03-07T07:05:50;45.70;;;23.20;;
83018;SDS011;72834;40.104;18.336;2024-03-07T07:08:16;31.48;;;20.33;;
83018;SDS011;72834;40.104;18.336;2024-03-07T07:10:42;20.50;;;12.82;;
83018;SDS011;72834;40.104;18.336;2024-03-07T07:13:09;19.98;;;12.73;;
83018;SDS011;72834;40.104;18.336;2024-03-07T07:15:36;30.33;;;22.55;;
83018;SDS011;72834;40.104;18.336;2024-03-07T07:18:02;11.20;;;7.30;;
83018;SDS011;72834;40.104;18.336;2024-03-07T07:20:29;6.45;;;2.40;;
83018;SDS011;72834;40.104;18.336;2024-03-07T07:22:56;4.70;;;2.10;;
83018;SDS011;72834;40.104;18.336;2024-03-07T07:25:25;30.65;;;13.52;;
83018;SDS011;72834;40.104;18.336;2024-03-07T07:27:52;11.82;;;6.20;;
83018;SDS011;72834;40.104;18.336;2024-03-07T07:30:19;8.25;;;4.07;;
83018;SDS011;72834;40.104;18.336;2024-03-07T07:32:51;9.40;;;6.10;;
83018;SDS011;72834;40.104;18.336;2024-03-07T07:35:17;8.10;;;5.03;;
83018;SDS011;72834;40.104;18.336;2024-03-07T07:37:45;11.00;;;4.57;;
83018;SDS011;72834;40.104;18.336;2024-03-07T07:40:14;13.65;;;6.32;;
83018;SDS011;72834;40.104;18.336;2024-03-07T07:42:44;10.38;;;4.22;;
83018;SDS011;72834;40.104;18.336;2024-03-07T07:45:12;8.95;;;2.30;;
83018;SDS011;72834;40.104;18.336;2024-03-07T07:47:40;7.40;;;3.35;;
83018;SDS011;72834;40.104;18.336;2024-03-07T07:53:00;8.20;;;3.00;;
83018;SDS011;72834;40.104;18.336;2024-03-07T07:55:26;6.93;;;3.60;;
83018;SDS011;72834;40.104;18.336;2024-03-07T07:57:54;10.13;;;3.78;;
83018;SDS011;72834;40.104;18.336;2024-03-07T08:00:23;8.60;;;3.70;;
83018;SDS011;72834;40.104;18.336;2024-03-07T08:02:54;7.55;;;2.92;;
83018;SDS011;72834;40.104;18.336;2024-03-07T08:05:29;11.23;;;3.38;;
83018;SDS011;72834;40.104;18.336;2024-03-07T08:07:58;15.85;;;7.90;;
83018;SDS011;72834;40.104;18.336;2024-03-07T08:10:26;5.55;;;2.55;;
83018;SDS011;72834;40.104;18.336;2024-03-07T08:12:57;6.25;;;3.20;;
83018;SDS011;72834;40.104;18.336;2024-03-07T08:15:24;47.47;;;29.13;;
83018;SDS011;72834;40.104;18.336;2024-03-07T08:17:53;53.47;;;30.67;;
83018;SDS011;72834;40.104;18.336;2024-03-07T08:20:23;77.03;;;41.80;;
83018;SDS011;72834;40.104;18.336;2024-03-07T08:22:51;41.88;;;25.05;;
83018;SDS011;72834;40.104;18.336;2024-03-07T08:25:20;67.68;;;34.50;;
83018;SDS011;72834;40.104;18.336;2024-03-07T08:27:52;52.15;;;29.58;;
83018;SDS011;72834;40.104;18.336;2024-03-07T08:30:19;33.58;;;19.88;;
83018;SDS011;72834;40.104;18.336;2024-03-07T08:32:47;11.07;;;5.40;;
83018;SDS011;72834;40.104;18.336;2024-03-07T08:35:21;11.98;;;5.85;;
83018;SDS011;72834;40.104;18.336;2024-03-07T08:37:49;6.43;;;2.67;;
83018;SDS011;72834;40.104;18.336;2024-03-07T08:40:21;8.18;;;2.65;;
83018;SDS011;72834;40.104;18.336;2024-03-07T08:42:49;6.38;;;1.75;;
83018;SDS011;72834;40.104;18.336;2024-03-07T08:45:17;7.00;;;2.92;;
83018;SDS011;72834;40.104;18.336;2024-03-07T08:47:48;15.10;;;3.60;;
83018;SDS011;72834;40.104;18.336;2024-03-07T08:50:16;6.60;;;2.50;;
83018;SDS011;72834;40.104;18.336;2024-03-07T08:52:47;11.00;;;5.93;;
83018;SDS011;72834;40.104;18.336;2024-03-07T08:55:14;9.35;;;3.65;;
83018;SDS011;72834;40.104;18.336;2024-03-07T08:57:42;4.30;;;1.15;;
83018;SDS011;72834;40.104;18.336;2024-03-07T09:00:12;5.78;;;1.80;;
83018;SDS011;72834;40.104;18.336;2024-03-07T09:03:01;2.75;;;1.40;;
83018;SDS011;72834;40.104;18.336;2024-03-07T09:05:29;9.80;;;3.95;;
83018;SDS011;72834;40.104;18.336;2024-03-07T09:07:58;8.20;;;2.22;;
83018;SDS011;72834;40.104;18.336;2024-03-07T09:10:25;4.97;;;2.13;;
83018;SDS011;72834;40.104;18.336;2024-03-07T09:12:55;6.07;;;1.13;;
83018;SDS011;72834;40.104;18.336;2024-03-07T09:15:21;9.93;;;2.35;;
83018;SDS011;72834;40.104;18.336;2024-03-07T09:17:48;8.23;;;3.13;;
83018;SDS011;72834;40.104;18.336;2024-03-07T09:20:14;6.45;;;2.45;;
83018;SDS011;72834;40.104;18.336;2024-03-07T09:22:41;7.82;;;2.88;;
83018;SDS011;72834;40.104;18.336;2024-03-07T09:25:10;9.50;;;2.92;;
83018;SDS011;72834;40.104;18.336;2024-03-07T09:27:38;15.18;;;4.80;;
83018;SDS011;72834;40.104;18.336;2024-03-07T09:30:08;23.83;;;10.60;;
83018;SDS011;72834;40.104;18.336;2024-03-07T09:32:43;8.23;;;2.63;;
83018;SDS011;72834;40.104;18.336;2024-03-07T09:35:10;9.70;;;4.20;;
83018;SDS011;72834;40.104;18.336;2024-03-07T09:37:40;10.05;;;4.45;;
83018;SDS011;72834;40.104;18.336;2024-03-07T09:40:07;7.50;;;2.53;;
83018;SDS011;72834;40.104;18.336;2024-03-07T09:42:44;8.23;;;2.67;;
83018;SDS011;72834;40.104;18.336;2024-03-07T09:45:17;7.45;;;3.53;;
83018;SDS011;72834;40.104;18.336;2024-03-07T09:47:46;8.20;;;4.32;;
83018;SDS011;72834;40.104;18.336;2024-03-07T09:50:14;18.02;;;11.57;;
83018;SDS011;72834;40.104;18.336;2024-03-07T09:52:47;7.97;;;3.30;;
83018;SDS011;72834;40.104;18.336;2024-03-07T09:55:17;8.32;;;4.45;;
83018;SDS011;72834;40.104;18.336;2024-03-07T09:57:46;8.70;;;2.65;;
83018;SDS011;72834;40.104;18.336;2024-03-07T10:00:14;42.80;;;22.52;;
83018;SDS011;72834;40.104;18.336;2024-03-07T10:02:57;16.50;;;9.85;;
83018;SDS011;72834;40.104;18.336;2024-03-07T10:05:30;6.07;;;3.10;;
83018;SDS011;72834;40.104;18.336;2024-03-07T10:07:58;8.98;;;3.83;;
83018;SDS011;72834;40.104;18.336;2024-03-07T10:10:25;8.80;;;2.60;;
83018;SDS011;72834;40.104;18.336;2024-03-07T10:12:52;12.43;;;7.85;;
83018;SDS011;72834;40.104;18.336;2024-03-07T10:17:56;10.93;;;5.28;;
83018;SDS011;72834;40.104;18.336;2024-03-07T10:20:23;6.63;;;2.60;;
83018;SDS011;72834;40.104;18.336;2024-03-07T10:22:50;10.20;;;4.85;;
83018;SDS011;72834;40.104;18.336;2024-03-07T10:25:17;12.63;;;5.22;;
83018;SDS011;72834;40.104;18.336;2024-03-07T10:27:45;6.28;;;1.30;;
83018;SDS011;72834;40.104;18.336;2024-03-07T10:30:14;3.80;;;1.50;;
83018;SDS011;72834;40.104;18.336;2024-03-07T10:32:46;6.45;;;2.30;;
83018;SDS011;72834;40.104;18.336;2024-03-07T10:35:20;6.97;;;2.00;;
83018;SDS011;72834;40.104;18.336;2024-03-07T10:37:48;7.35;;;2.15;;
83018;SDS011;72834;40.104;18.336;2024-03-07T10:40:16;6.72;;;2.25;;
83018;SDS011;72834;40.104;18.336;2024-03-07T10:42:46;58.13;;;26.48;;
83018;SDS011;72834;40.104;18.336;2024-03-07T10:45:18;9.10;;;4.10;;
83018;SDS011;72834;40.104;18.336;2024-03-07T10:47:53;7.15;;;2.58;;
83018;SDS011;72834;40.104;18.336;2024-03-07T10:53:03;50.88;;;22.52;;
83018;SDS011;72834;40.104;18.336;2024-03-07T10:55:53;57.33;;;32.50;;
83018;SDS011;72834;40.104;18.336;2024-03-07T10:58:37;29.30;;;16.33;;
83018;SDS011;72834;40.104;18.336;2024-03-07T11:04:50;31.23;;;15.45;;
83018;SDS011;72834;40.104;18.336;2024-03-07T11:07:20;17.23;;;9.10;;
83018;SDS011;72834;40.104;18.336;2024-03-07T11:09:51;16.58;;;4.60;;
83018;SDS011;72834;40.104;18.336;2024-03-07T11:12:19;18.67;;;9.68;;
83018;SDS011;72834;40.104;18.336;2024-03-07T11:14:49;9.00;;;3.90;;
83018;SDS011;72834;40.104;18.336;2024-03-07T11:17:17;13.10;;;4.80;;
83018;SDS011;72834;40.104;18.336;2024-03-07T11:19:46;12.77;;;5.90;;
83018;SDS011;72834;40.104;18.336;2024-03-07T11:22:46;11.75;;;6.30;;
83018;SDS011;72834;40.104;18.336;2024-03-07T11:25:07;11.70;;;4.70;;
83018;SDS011;72834;40.104;18.336;2024-03-07T11:27:36;7.40;;;3.42;;
83018;SDS011;72834;40.104;18.336;2024-03-07T11:30:07;8.13;;;4.53;;
83018;SDS011;72834;40.104;18.336;2024-03-07T11:32:37;8.75;;;5.07;;
83018;SDS011;72834;40.104;18.336;2024-03-07T11:35:04;6.30;;;3.15;;
83018;SDS011;72834;40.104;18.336;2024-03-07T11:37:42;7.35;;;2.47;;
83018;SDS011;72834;40.104;18.336;2024-03-07T11:40:13;10.15;;;3.67;;
83018;SDS011;72834;40.104;18.336;2024-03-07T11:43:03;6.35;;;3.30;;
83018;SDS011;72834;40.104;18.336;2024-03-07T11:45:32;30.80;;;19.70;;
83018;SDS011;72834;40.104;18.336;2024-03-07T11:48:04;10.83;;;5.33;;
83018;SDS011;72834;40.104;18.336;2024-03-07T11:50:38;22.08;;;12.07;;
83018;SDS011;72834;40.104;18.336;2024-03-07T11:53:06;21.10;;;13.18;;
83018;SDS011;72834;40.104;18.336;2024-03-07T11:55:34;5.38;;;2.88;;
83018;SDS011;72834;40.104;18.336;2024-03-07T11:58:12;5.15;;;1.50;;
83018;SDS011;72834;40.104;18.336;2024-03-07T12:00:43;6.43;;;1.85;;
83018;SDS011;72834;40.104;18.336;2024-03-07T12:03:13;8.18;;;2.88;;
83018;SDS011;72834;40.104;18.336;2024-03-07T12:05:42;9.52;;;3.42;;
83018;SDS011;72834;40.104;18.336;2024-03-07T12:08:10;8.80;;;4.05;;
83018;SDS011;72834;40.104;18.336;2024-03-07T12:10:37;7.57;;;2.60;;
83018;SDS011;72834;40.104;18.336;2024-03-07T12:13:05;9.52;;;6.85;;
83018;SDS011;72834;40.104;18.336;2024-03-07T12:15:32;7.28;;;4.07;;
83018;SDS011;72834;40.104;18.336;2024-03-07T12:18:01;7.60;;;4.70;;
83018;SDS011;72834;40.104;18.336;2024-03-07T12:20:28;8.90;;;4.53;;
83018;SDS011;72834;40.104;18.336;2024-03-07T12:22:59;8.95;;;3.63;;
83018;SDS011;72834;40.104;18.336;2024-03-07T12:25:31;6.25;;;2.70;;
83018;SDS011;72834;40.104;18.336;2024-03-07T12:28:02;13.85;;;4.32;;
83018;SDS011;72834;40.104;18.336;2024-03-07T12:33:12;5.80;;;2.28;;
83018;SDS011;72834;40.104;18.336;2024-03-07T12:35:48;6.88;;;3.45;;
83018;SDS011;72834;40.104;18.336;2024-03-07T12:38:17;9.20;;;6.15;;
83018;SDS011;72834;40.104;18.336;2024-03-07T12:40:47;10.60;;;5.22;;
83018;SDS011;72834;40.104;18.336;2024-03-07T12:43:31;5.03;;;2.78;;
83018;SDS011;72834;40.104;18.336;2024-03-07T12:45:58;7.80;;;3.47;;
83018;SDS011;72834;40.104;18.336;2024-03-07T12:48:25;5.93;;;2.67;;
83018;SDS011;72834;40.104;18.336;2024-03-07T12:50:51;4.05;;;1.52;;
83018;SDS011;72834;40.104;18.336;2024-03-07T12:53:21;8.02;;;2.72;;
83018;SDS011;72834;40.104;18.336;2024-03-07T12:55:54;5.80;;;1.80;;
83018;SDS011;72834;40.104;18.336;2024-03-07T12:58:20;5.20;;;1.45;;
83018;SDS011;72834;40.104;18.336;2024-03-07T13:00:55;6.88;;;1.98;;
83018;SDS011;72834;40.104;18.336;2024-03-07T13:03:21;7.32;;;1.92;;
83018;SDS011;72834;40.104;18.336;2024-03-07T13:05:48;13.40;;;6.20;;
83018;SDS011;72834;40.104;18.336;2024-03-07T13:08:16;9.32;;;3.15;;
83018;SDS011;72834;40.104;18.336;2024-03-07T13:10:43;6.05;;;1.40;;
83018;SDS011;72834;40.104;18.336;2024-03-07T13:13:16;9.60;;;3.00;;
83018;SDS011;72834;40.104;18.336;2024-03-07T13:15:42;5.10;;;1.27;;
83018;SDS011;72834;40.104;18.336;2024-03-07T13:18:12;4.15;;;1.13;;
83018;SDS011;72834;40.104;18.336;2024-03-07T13:20:39;3.95;;;1.23;;
83018;SDS011;72834;40.104;18.336;2024-03-07T13:23:08;2.50;;;0.80;;
83018;SDS011;72834;40.104;18.336;2024-03-07T13:25:35;3.95;;;1.08;;
83018;SDS011;72834;40.104;18.336;2024-03-07T13:30:39;2.72;;;0.80;;
83018;SDS011;72834;40.104;18.336;2024-03-07T13:33:07;3.75;;;1.23;;
83018;SDS011;72834;40.104;18.336;2024-03-07T13:35:37;1.58;;;1.00;;
83018;SDS011;72834;40.104;18.336;2024-03-07T13:38:05;4.03;;;1.20;;
83018;SDS011;72834;40.104;18.336;2024-03-07T13:40:32;2.15;;;0.80;;
83018;SDS011;72834;40.104;18.336;2024-03-07T13:43:05;1.63;;;0.55;;
83018;SDS011;72834;40.104;18.336;2024-03-07T13:45:33;4.82;;;0.73;;
83018;SDS011;72834;40.104;18.336;2024-03-07T13:48:09;2.58;;;0.70;;
83018;SDS011;72834;40.104;18.336;2024-03-07T13:50:38;2.83;;;0.82;;
83018;SDS011;72834;40.104;18.336;2024-03-07T13:53:15;2.85;;;1.50;;
83018;SDS011;72834;40.104;18.336;2024-03-07T14:31:45;8.40;;;5.35;;
83018;SDS011;72834;40.104;18.336;2024-03-07T14:34:35;7.60;;;3.78;;
83018;SDS011;72834;40.104;18.336;2024-03-07T14:37:29;14.60;;;6.18;;
83018;SDS011;72834;40.104;18.336;2024-03-07T14:40:14;22.40;;;10.85;;
83018;SDS011;72834;40.104;18.336;2024-03-07T14:42:44;23.25;;;12.32;;
83018;SDS011;72834;40.104;18.336;2024-03-07T14:45:19;59.53;;;31.33;;
83018;SDS011;72834;40.104;18.336;2024-03-07T14:47:47;13.13;;;8.82;;
83018;SDS011;72834;40.104;18.336;2024-03-07T14:50:18;9.20;;;6.45;;
83018;SDS011;72834;40.104;18.336;2024-03-07T14:56:40;8.57;;;5.75;;
83018;SDS011;72834;40.104;18.336;2024-03-07T14:59:07;13.57;;;9.48;;
83018;SDS011;72834;40.104;18.336;2024-03-07T15:01:34;10.07;;;7.18;;
83018;SDS011;72834;40.104;18.336;2024-03-07T15:04:01;12.98;;;5.05;;
83018;SDS011;72834;40.104;18.336;2024-03-07T15:06:29;8.60;;;4.47;;
83018;SDS011;72834;40.104;18.336;2024-03-07T15:08:57;6.82;;;3.00;;
83018;SDS011;72834;40.104;18.336;2024-03-07T15:14:00;5.57;;;3.28;;
83018;SDS011;72834;40.104;18.336;2024-03-07T15:16:36;12.48;;;7.55;;
83018;SDS011;72834;40.104;18.336;2024-03-07T15:19:04;8.23;;;3.83;;
83018;SDS011;72834;40.104;18.336;2024-03-07T15:21:31;79.90;;;47.15;;
83018;SDS011;72834;40.104;18.336;2024-03-07T15:23:58;40.40;;;25.98;;
83018;SDS011;72834;40.104;18.336;2024-03-07T15:26:25;9.70;;;5.60;;
83018;SDS011;72834;40.104;18.336;2024-03-07T15:28:52;3.42;;;1.80;;
83018;SDS011;72834;40.104;18.336;2024-03-07T15:31:23;2.08;;;1.30;;
83018;SDS011;72834;40.104;18.336;2024-03-07T15:33:50;7.35;;;3.45;;
83018;SDS011;72834;40.104;18.336;2024-03-07T15:36:17;5.40;;;2.55;;
83018;SDS011;72834;40.104;18.336;2024-03-07T15:38:44;4.30;;;2.05;;